sensor_id;sensor_type;location;lat;lon;timestamp;temperature;humidity
7666;DHT22;3875;46.562;4.898;2022-07-04T00:02:25;21.90;80.20
7666;DHT22;3875;46.562;4.898;2022-07-04T00:04:51;22.00;80.00
7666;DHT22;3875;46.562;4.898;2022-07-04T00:07:16;22.00;80.40
7666;DHT22;3875;46.562;4.898;2022-07-04T00:09:42;22.20;81.00
7666;DHT22;3875;46.562;4.898;2022-07-04T00:12:08;22.20;80.30
7666;DHT22;3875;46.562;4.898;2022-07-04T00:14:34;22.20;79.90
7666;DHT22;3875;46.562;4.898;2022-07-04T00:17:00;22.20;80.20
7666;DHT22;3875;46.562;4.898;2022-07-04T00:19:26;22.20;80.40
7666;DHT22;3875;46.562;4.898;2022-07-04T00:21:51;22.20;80.40
7666;DHT22;3875;46.562;4.898;2022-07-04T00:35:08;22.20;80.70
7666;DHT22;3875;46.562;4.898;2022-07-04T00:37:34;22.50;78.30
7666;DHT22;3875;46.562;4.898;2022-07-04T00:39:59;22.30;79.10
7666;DHT22;3875;46.562;4.898;2022-07-04T00:42:25;22.20;79.10
7666;DHT22;3875;46.562;4.898;2022-07-04T00:44:51;22.00;78.80
7666;DHT22;3875;46.562;4.898;2022-07-04T00:47:17;21.90;79.00
7666;DHT22;3875;46.562;4.898;2022-07-04T00:49:43;21.80;79.40
7666;DHT22;3875;46.562;4.898;2022-07-04T00:52:08;21.80;79.30
7666;DHT22;3875;46.562;4.898;2022-07-04T00:54:35;21.70;79.00
7666;DHT22;3875;46.562;4.898;2022-07-04T00:57:01;21.50;78.40
7666;DHT22;3875;46.562;4.898;2022-07-04T00:59:28;21.40;79.80
7666;DHT22;3875;46.562;4.898;2022-07-04T01:01:54;21.40;80.00
7666;DHT22;3875;46.562;4.898;2022-07-04T01:04:20;21.40;80.50
7666;DHT22;3875;46.562;4.898;2022-07-04T01:06:46;21.40;80.40
7666;DHT22;3875;46.562;4.898;2022-07-04T01:09:12;21.50;80.40
7666;DHT22;3875;46.562;4.898;2022-07-04T01:11:38;21.50;80.00
7666;DHT22;3875;46.562;4.898;2022-07-04T01:14:04;21.50;80.20
7666;DHT22;3875;46.562;4.898;2022-07-04T01:16:32;21.50;79.70
7666;DHT22;3875;46.562;4.898;2022-07-04T01:18:57;21.40;79.50
7666;DHT22;3875;46.562;4.898;2022-07-04T01:21:23;21.30;79.30
7666;DHT22;3875;46.562;4.898;2022-07-04T01:23:49;21.20;80.10
7666;DHT22;3875;46.562;4.898;2022-07-04T01:26:15;21.20;80.50
7666;DHT22;3875;46.562;4.898;2022-07-04T01:28:40;21.20;80.50
7666;DHT22;3875;46.562;4.898;2022-07-04T01:31:06;21.10;80.80
7666;DHT22;3875;46.562;4.898;2022-07-04T01:33:33;21.10;80.60
7666;DHT22;3875;46.562;4.898;2022-07-04T01:35:59;21.10;80.60
7666;DHT22;3875;46.562;4.898;2022-07-04T01:38:25;21.00;81.30
7666;DHT22;3875;46.562;4.898;2022-07-04T01:40:51;21.10;80.90
7666;DHT22;3875;46.562;4.898;2022-07-04T01:43:17;21.10;80.60
7666;DHT22;3875;46.562;4.898;2022-07-04T01:45:43;21.00;80.10
7666;DHT22;3875;46.562;4.898;2022-07-04T01:48:10;20.90;80.40
7666;DHT22;3875;46.562;4.898;2022-07-04T01:50:37;20.90;81.10
7666;DHT22;3875;46.562;4.898;2022-07-04T01:53:03;20.90;80.70
7666;DHT22;3875;46.562;4.898;2022-07-04T01:55:29;20.90;80.30
7666;DHT22;3875;46.562;4.898;2022-07-04T01:57:55;20.80;80.20
7666;DHT22;3875;46.562;4.898;2022-07-04T02:00:22;20.80;80.60
7666;DHT22;3875;46.562;4.898;2022-07-04T02:03:07;20.80;81.10
7666;DHT22;3875;46.562;4.898;2022-07-04T02:05:32;20.80;81.30
7666;DHT22;3875;46.562;4.898;2022-07-04T02:07:59;20.90;80.90
7666;DHT22;3875;46.562;4.898;2022-07-04T02:10:25;20.90;81.00
7666;DHT22;3875;46.562;4.898;2022-07-04T02:12:50;20.90;80.90
7666;DHT22;3875;46.562;4.898;2022-07-04T02:15:31;20.90;81.00
7666;DHT22;3875;46.562;4.898;2022-07-04T02:17:57;20.90;81.10
7666;DHT22;3875;46.562;4.898;2022-07-04T02:20:24;20.90;81.10
7666;DHT22;3875;46.562;4.898;2022-07-04T02:22:50;20.90;80.60
7666;DHT22;3875;46.562;4.898;2022-07-04T02:25:16;20.90;80.80
7666;DHT22;3875;46.562;4.898;2022-07-04T02:27:42;20.80;80.60
7666;DHT22;3875;46.562;4.898;2022-07-04T02:30:08;20.80;80.40
7666;DHT22;3875;46.562;4.898;2022-07-04T02:32:35;20.70;80.40
7666;DHT22;3875;46.562;4.898;2022-07-04T02:35:01;20.70;80.00
7666;DHT22;3875;46.562;4.898;2022-07-04T02:37:27;20.50;79.90
7666;DHT22;3875;46.562;4.898;2022-07-04T02:39:53;20.40;80.50
7666;DHT22;3875;46.562;4.898;2022-07-04T02:42:18;20.30;80.90
7666;DHT22;3875;46.562;4.898;2022-07-04T02:44:44;20.30;80.90
7666;DHT22;3875;46.562;4.898;2022-07-04T02:47:11;20.30;81.10
7666;DHT22;3875;46.562;4.898;2022-07-04T02:49:36;20.20;81.20
7666;DHT22;3875;46.562;4.898;2022-07-04T02:52:02;20.20;81.30
7666;DHT22;3875;46.562;4.898;2022-07-04T02:54:28;20.30;81.00
7666;DHT22;3875;46.562;4.898;2022-07-04T02:56:54;20.40;80.90
7666;DHT22;3875;46.562;4.898;2022-07-04T02:59:19;20.50;80.50
7666;DHT22;3875;46.562;4.898;2022-07-04T03:01:45;20.50;80.50
7666;DHT22;3875;46.562;4.898;2022-07-04T03:04:11;20.50;80.60
7666;DHT22;3875;46.562;4.898;2022-07-04T03:06:37;20.50;80.80
7666;DHT22;3875;46.562;4.898;2022-07-04T03:09:02;20.50;81.10
7666;DHT22;3875;46.562;4.898;2022-07-04T03:11:28;20.50;81.20
7666;DHT22;3875;46.562;4.898;2022-07-04T03:13:54;20.50;81.20
7666;DHT22;3875;46.562;4.898;2022-07-04T03:16:20;20.50;81.50
7666;DHT22;3875;46.562;4.898;2022-07-04T03:18:45;20.50;81.70
7666;DHT22;3875;46.562;4.898;2022-07-04T03:21:11;20.50;81.60
7666;DHT22;3875;46.562;4.898;2022-07-04T03:23:37;20.50;81.80
7666;DHT22;3875;46.562;4.898;2022-07-04T03:26:02;20.40;81.90
7666;DHT22;3875;46.562;4.898;2022-07-04T03:28:28;20.40;81.90
7666;DHT22;3875;46.562;4.898;2022-07-04T03:30:54;20.40;82.10
7666;DHT22;3875;46.562;4.898;2022-07-04T03:33:20;20.30;81.90
7666;DHT22;3875;46.562;4.898;2022-07-04T03:35:45;20.30;81.90
7666;DHT22;3875;46.562;4.898;2022-07-04T03:38:11;20.30;82.20
7666;DHT22;3875;46.562;4.898;2022-07-04T03:40:37;20.30;82.10
7666;DHT22;3875;46.562;4.898;2022-07-04T03:43:04;20.20;82.30
7666;DHT22;3875;46.562;4.898;2022-07-04T03:45:31;20.20;82.40
7666;DHT22;3875;46.562;4.898;2022-07-04T03:47:57;20.20;82.50
7666;DHT22;3875;46.562;4.898;2022-07-04T03:50:23;20.20;82.50
7666;DHT22;3875;46.562;4.898;2022-07-04T03:52:49;20.20;82.50
7666;DHT22;3875;46.562;4.898;2022-07-04T03:55:15;20.20;82.60
7666;DHT22;3875;46.562;4.898;2022-07-04T03:57:41;20.20;82.20
7666;DHT22;3875;46.562;4.898;2022-07-04T04:00:09;20.20;82.20
7666;DHT22;3875;46.562;4.898;2022-07-04T04:02:36;20.20;82.10
7666;DHT22;3875;46.562;4.898;2022-07-04T04:05:03;20.20;82.10
7666;DHT22;3875;46.562;4.898;2022-07-04T04:07:47;20.20;82.10
7666;DHT22;3875;46.562;4.898;2022-07-04T04:10:13;20.10;82.20
7666;DHT22;3875;46.562;4.898;2022-07-04T04:12:39;20.10;82.20
7666;DHT22;3875;46.562;4.898;2022-07-04T04:15:05;20.10;82.30
7666;DHT22;3875;46.562;4.898;2022-07-04T04:17:30;20.10;82.00
7666;DHT22;3875;46.562;4.898;2022-07-04T04:19:56;20.10;81.80
7666;DHT22;3875;46.562;4.898;2022-07-04T04:22:22;20.10;82.00
7666;DHT22;3875;46.562;4.898;2022-07-04T04:24:47;20.00;82.20
7666;DHT22;3875;46.562;4.898;2022-07-04T04:27:13;20.00;82.10
7666;DHT22;3875;46.562;4.898;2022-07-04T04:29:39;20.00;82.30
7666;DHT22;3875;46.562;4.898;2022-07-04T04:32:05;20.10;81.80
7666;DHT22;3875;46.562;4.898;2022-07-04T04:34:31;20.10;81.40
7666;DHT22;3875;46.562;4.898;2022-07-04T04:36:56;20.10;81.80
7666;DHT22;3875;46.562;4.898;2022-07-04T04:39:22;20.10;80.80
7666;DHT22;3875;46.562;4.898;2022-07-04T04:41:48;20.00;80.50
7666;DHT22;3875;46.562;4.898;2022-07-04T04:44:14;20.00;80.80
7666;DHT22;3875;46.562;4.898;2022-07-04T04:46:39;20.00;80.50
7666;DHT22;3875;46.562;4.898;2022-07-04T04:49:05;20.10;80.40
7666;DHT22;3875;46.562;4.898;2022-07-04T04:51:31;20.10;79.90
7666;DHT22;3875;46.562;4.898;2022-07-04T04:53:56;20.20;80.30
7666;DHT22;3875;46.562;4.898;2022-07-04T04:56:22;20.30;79.90
7666;DHT22;3875;46.562;4.898;2022-07-04T04:58:48;20.30;79.70
7666;DHT22;3875;46.562;4.898;2022-07-04T05:01:13;20.40;79.70
7666;DHT22;3875;46.562;4.898;2022-07-04T05:03:40;20.50;79.80
7666;DHT22;3875;46.562;4.898;2022-07-04T05:06:06;20.50;79.80
7666;DHT22;3875;46.562;4.898;2022-07-04T05:08:32;20.60;80.10
7666;DHT22;3875;46.562;4.898;2022-07-04T05:10:57;20.70;79.80
7666;DHT22;3875;46.562;4.898;2022-07-04T05:13:23;20.80;79.60
7666;DHT22;3875;46.562;4.898;2022-07-04T05:15:49;20.80;78.90
7666;DHT22;3875;46.562;4.898;2022-07-04T05:18:14;20.90;79.20
7666;DHT22;3875;46.562;4.898;2022-07-04T05:20:41;21.00;78.60
7666;DHT22;3875;46.562;4.898;2022-07-04T05:23:07;20.90;77.60
7666;DHT22;3875;46.562;4.898;2022-07-04T05:25:32;20.70;78.00
7666;DHT22;3875;46.562;4.898;2022-07-04T05:27:59;20.60;78.20
7666;DHT22;3875;46.562;4.898;2022-07-04T05:30:25;20.60;78.80
7666;DHT22;3875;46.562;4.898;2022-07-04T05:32:51;20.70;79.10
7666;DHT22;3875;46.562;4.898;2022-07-04T05:35:17;20.80;79.50
7666;DHT22;3875;46.562;4.898;2022-07-04T05:37:43;20.80;79.40
7666;DHT22;3875;46.562;4.898;2022-07-04T05:40:10;20.80;79.50
7666;DHT22;3875;46.562;4.898;2022-07-04T05:42:37;20.70;79.80
7666;DHT22;3875;46.562;4.898;2022-07-04T05:45:03;20.70;79.90
7666;DHT22;3875;46.562;4.898;2022-07-04T05:47:29;20.80;80.00
7666;DHT22;3875;46.562;4.898;2022-07-04T05:49:55;20.80;79.90
7666;DHT22;3875;46.562;4.898;2022-07-04T05:52:21;20.80;80.00
7666;DHT22;3875;46.562;4.898;2022-07-04T05:54:47;20.70;80.10
7666;DHT22;3875;46.562;4.898;2022-07-04T05:57:13;20.70;80.20
7666;DHT22;3875;46.562;4.898;2022-07-04T05:59:39;20.70;80.30
7666;DHT22;3875;46.562;4.898;2022-07-04T06:02:05;20.70;80.40
7666;DHT22;3875;46.562;4.898;2022-07-04T06:04:31;20.70;80.70
7666;DHT22;3875;46.562;4.898;2022-07-04T06:06:56;20.60;80.90
7666;DHT22;3875;46.562;4.898;2022-07-04T06:09:22;20.60;80.90
7666;DHT22;3875;46.562;4.898;2022-07-04T06:11:48;20.70;80.80
7666;DHT22;3875;46.562;4.898;2022-07-04T06:14:14;20.80;80.90
7666;DHT22;3875;46.562;4.898;2022-07-04T06:16:40;20.90;81.10
7666;DHT22;3875;46.562;4.898;2022-07-04T06:19:05;21.10;80.40
7666;DHT22;3875;46.562;4.898;2022-07-04T06:21:31;21.30;80.30
7666;DHT22;3875;46.562;4.898;2022-07-04T06:23:57;21.50;80.30
7666;DHT22;3875;46.562;4.898;2022-07-04T06:26:24;21.70;80.10
7666;DHT22;3875;46.562;4.898;2022-07-04T06:28:49;21.80;79.60
7666;DHT22;3875;46.562;4.898;2022-07-04T06:31:15;22.10;78.90
7666;DHT22;3875;46.562;4.898;2022-07-04T06:33:41;22.20;78.20
7666;DHT22;3875;46.562;4.898;2022-07-04T06:36:45;22.30;77.90
7666;DHT22;3875;46.562;4.898;2022-07-04T06:39:11;22.50;78.00
7666;DHT22;3875;46.562;4.898;2022-07-04T06:41:37;22.70;77.40
7666;DHT22;3875;46.562;4.898;2022-07-04T06:44:03;22.60;76.60
7666;DHT22;3875;46.562;4.898;2022-07-04T06:46:29;22.50;76.20
7666;DHT22;3875;46.562;4.898;2022-07-04T06:48:55;22.50;76.50
7666;DHT22;3875;46.562;4.898;2022-07-04T06:51:21;22.30;76.80
7666;DHT22;3875;46.562;4.898;2022-07-04T06:53:46;22.40;77.20
7666;DHT22;3875;46.562;4.898;2022-07-04T06:56:12;22.40;76.50
7666;DHT22;3875;46.562;4.898;2022-07-04T06:58:38;22.60;75.80
7666;DHT22;3875;46.562;4.898;2022-07-04T07:01:04;22.70;75.00
7666;DHT22;3875;46.562;4.898;2022-07-04T07:03:30;22.90;74.50
7666;DHT22;3875;46.562;4.898;2022-07-04T07:05:55;23.00;74.10
7666;DHT22;3875;46.562;4.898;2022-07-04T07:08:22;22.80;73.90
7666;DHT22;3875;46.562;4.898;2022-07-04T07:10:48;22.80;75.00
7666;DHT22;3875;46.562;4.898;2022-07-04T07:13:14;22.90;74.90
7666;DHT22;3875;46.562;4.898;2022-07-04T07:15:39;22.90;75.10
7666;DHT22;3875;46.562;4.898;2022-07-04T07:18:05;23.00;75.00
7666;DHT22;3875;46.562;4.898;2022-07-04T07:20:32;23.00;74.80
7666;DHT22;3875;46.562;4.898;2022-07-04T07:22:57;22.80;74.20
7666;DHT22;3875;46.562;4.898;2022-07-04T07:25:23;22.70;75.00
7666;DHT22;3875;46.562;4.898;2022-07-04T07:27:49;22.70;75.20
7666;DHT22;3875;46.562;4.898;2022-07-04T07:30:15;22.60;74.40
7666;DHT22;3875;46.562;4.898;2022-07-04T07:32:40;22.80;74.80
7666;DHT22;3875;46.562;4.898;2022-07-04T07:35:06;22.80;73.90
7666;DHT22;3875;46.562;4.898;2022-07-04T07:37:32;22.70;74.40
7666;DHT22;3875;46.562;4.898;2022-07-04T07:39:58;22.70;75.10
7666;DHT22;3875;46.562;4.898;2022-07-04T07:42:25;22.60;75.10
7666;DHT22;3875;46.562;4.898;2022-07-04T07:44:51;22.50;74.80
7666;DHT22;3875;46.562;4.898;2022-07-04T07:47:16;22.30;75.50
7666;DHT22;3875;46.562;4.898;2022-07-04T07:49:42;22.10;76.30
7666;DHT22;3875;46.562;4.898;2022-07-04T07:52:08;22.30;76.50
7666;DHT22;3875;46.562;4.898;2022-07-04T07:54:34;22.70;76.10
7666;DHT22;3875;46.562;4.898;2022-07-04T07:57:00;23.00;75.40
7666;DHT22;3875;46.562;4.898;2022-07-04T07:59:25;23.30;74.70
7666;DHT22;3875;46.562;4.898;2022-07-04T08:01:51;23.70;73.50
7666;DHT22;3875;46.562;4.898;2022-07-04T08:04:17;23.70;73.80
7666;DHT22;3875;46.562;4.898;2022-07-04T08:07:06;23.80;73.80
7666;DHT22;3875;46.562;4.898;2022-07-04T08:09:32;23.80;73.00
7666;DHT22;3875;46.562;4.898;2022-07-04T08:11:59;23.60;73.60
7666;DHT22;3875;46.562;4.898;2022-07-04T08:14:26;23.70;73.60
7666;DHT22;3875;46.562;4.898;2022-07-04T08:16:52;24.00;72.90
7666;DHT22;3875;46.562;4.898;2022-07-04T08:19:17;24.20;71.70
7666;DHT22;3875;46.562;4.898;2022-07-04T08:21:43;24.50;72.20
7666;DHT22;3875;46.562;4.898;2022-07-04T08:24:09;25.00;72.20
7666;DHT22;3875;46.562;4.898;2022-07-04T08:26:34;25.30;70.40
7666;DHT22;3875;46.562;4.898;2022-07-04T08:29:00;25.50;70.40
7666;DHT22;3875;46.562;4.898;2022-07-04T08:31:26;25.90;69.60
7666;DHT22;3875;46.562;4.898;2022-07-04T08:33:53;25.80;67.70
7666;DHT22;3875;46.562;4.898;2022-07-04T08:36:19;25.70;69.90
7666;DHT22;3875;46.562;4.898;2022-07-04T08:38:44;25.50;69.10
7666;DHT22;3875;46.562;4.898;2022-07-04T08:41:11;25.60;70.00
7666;DHT22;3875;46.562;4.898;2022-07-04T08:43:38;25.80;68.50
7666;DHT22;3875;46.562;4.898;2022-07-04T08:46:05;25.60;69.40
7666;DHT22;3875;46.562;4.898;2022-07-04T08:48:32;25.30;68.90
7666;DHT22;3875;46.562;4.898;2022-07-04T08:53:38;24.50;71.50
7666;DHT22;3875;46.562;4.898;2022-07-04T08:56:05;24.30;71.00
7666;DHT22;3875;46.562;4.898;2022-07-04T08:58:50;24.30;71.50
7666;DHT22;3875;46.562;4.898;2022-07-04T09:01:16;24.50;71.90
7666;DHT22;3875;46.562;4.898;2022-07-04T09:03:44;24.70;72.20
7666;DHT22;3875;46.562;4.898;2022-07-04T09:06:13;24.80;71.80
7666;DHT22;3875;46.562;4.898;2022-07-04T09:08:39;24.80;71.80
7666;DHT22;3875;46.562;4.898;2022-07-04T09:11:05;25.00;71.70
7666;DHT22;3875;46.562;4.898;2022-07-04T09:13:31;25.20;71.20
7666;DHT22;3875;46.562;4.898;2022-07-04T09:15:57;25.30;71.00
7666;DHT22;3875;46.562;4.898;2022-07-04T09:18:25;25.40;70.70
7666;DHT22;3875;46.562;4.898;2022-07-04T09:21:16;25.30;69.60
7666;DHT22;3875;46.562;4.898;2022-07-04T09:23:42;25.10;70.30
7666;DHT22;3875;46.562;4.898;2022-07-04T09:26:15;24.90;71.40
7666;DHT22;3875;46.562;4.898;2022-07-04T09:28:43;25.00;71.80
7666;DHT22;3875;46.562;4.898;2022-07-04T09:31:17;25.20;71.30
7666;DHT22;3875;46.562;4.898;2022-07-04T09:34:02;25.40;70.30
7666;DHT22;3875;46.562;4.898;2022-07-04T09:36:34;25.20;70.10
7666;DHT22;3875;46.562;4.898;2022-07-04T09:41:52;25.20;71.00
7666;DHT22;3875;46.562;4.898;2022-07-04T09:44:19;25.30;70.70
7666;DHT22;3875;46.562;4.898;2022-07-04T09:46:44;25.20;70.30
7666;DHT22;3875;46.562;4.898;2022-07-04T09:49:11;25.10;70.80
7666;DHT22;3875;46.562;4.898;2022-07-04T09:51:47;25.10;71.50
7666;DHT22;3875;46.562;4.898;2022-07-04T09:56:46;24.90;70.80
7666;DHT22;3875;46.562;4.898;2022-07-04T09:59:13;24.80;71.10
7666;DHT22;3875;46.562;4.898;2022-07-04T10:01:38;24.60;71.60
7666;DHT22;3875;46.562;4.898;2022-07-04T10:04:06;24.60;71.60
7666;DHT22;3875;46.562;4.898;2022-07-04T10:06:32;24.70;71.60
7666;DHT22;3875;46.562;4.898;2022-07-04T10:09:27;24.70;71.20
7666;DHT22;3875;46.562;4.898;2022-07-04T10:11:53;24.90;71.80
7666;DHT22;3875;46.562;4.898;2022-07-04T10:14:19;25.00;72.10
7666;DHT22;3875;46.562;4.898;2022-07-04T10:16:45;25.10;71.50
7666;DHT22;3875;46.562;4.898;2022-07-04T10:19:10;25.10;70.80
7666;DHT22;3875;46.562;4.898;2022-07-04T10:21:38;25.10;70.60
7666;DHT22;3875;46.562;4.898;2022-07-04T10:24:04;25.20;71.10
7666;DHT22;3875;46.562;4.898;2022-07-04T10:26:30;25.40;70.30
7666;DHT22;3875;46.562;4.898;2022-07-04T10:28:57;25.90;69.80
7666;DHT22;3875;46.562;4.898;2022-07-04T10:31:26;26.50;68.70
7666;DHT22;3875;46.562;4.898;2022-07-04T10:33:52;26.60;66.70
7666;DHT22;3875;46.562;4.898;2022-07-04T10:36:21;26.60;67.60
7666;DHT22;3875;46.562;4.898;2022-07-04T10:38:59;26.90;66.70
7666;DHT22;3875;46.562;4.898;2022-07-04T10:41:27;27.10;65.70
7666;DHT22;3875;46.562;4.898;2022-07-04T10:44:02;27.30;65.90
7666;DHT22;3875;46.562;4.898;2022-07-04T10:49:03;27.70;64.30
7666;DHT22;3875;46.562;4.898;2022-07-04T10:54:03;27.80;64.60
7666;DHT22;3875;46.562;4.898;2022-07-04T10:58:56;27.80;63.60
7666;DHT22;3875;46.562;4.898;2022-07-04T11:01:24;27.80;63.20
7666;DHT22;3875;46.562;4.898;2022-07-04T11:03:53;27.70;64.10
7666;DHT22;3875;46.562;4.898;2022-07-04T11:12:11;28.20;63.70
7666;DHT22;3875;46.562;4.898;2022-07-04T11:14:45;28.70;61.30
7666;DHT22;3875;46.562;4.898;2022-07-04T11:17:28;28.70;61.60
7666;DHT22;3875;46.562;4.898;2022-07-04T11:20:03;28.70;60.60
7666;DHT22;3875;46.562;4.898;2022-07-04T11:22:30;28.80;60.70
7666;DHT22;3875;46.562;4.898;2022-07-04T11:24:56;28.60;61.40
7666;DHT22;3875;46.562;4.898;2022-07-04T11:27:23;28.70;61.80
7666;DHT22;3875;46.562;4.898;2022-07-04T11:29:53;29.00;61.40
7666;DHT22;3875;46.562;4.898;2022-07-04T11:32:20;29.10;59.50
7666;DHT22;3875;46.562;4.898;2022-07-04T11:34:46;28.90;58.60
7666;DHT22;3875;46.562;4.898;2022-07-04T11:37:13;28.60;58.30
7666;DHT22;3875;46.562;4.898;2022-07-04T11:39:39;28.70;58.50
7666;DHT22;3875;46.562;4.898;2022-07-04T11:42:05;28.80;59.30
7666;DHT22;3875;46.562;4.898;2022-07-04T11:44:49;28.80;58.80
7666;DHT22;3875;46.562;4.898;2022-07-04T11:47:40;29.10;58.80
7666;DHT22;3875;46.562;4.898;2022-07-04T11:50:14;29.30;58.60
7666;DHT22;3875;46.562;4.898;2022-07-04T11:52:41;29.40;57.10
7666;DHT22;3875;46.562;4.898;2022-07-04T11:55:12;29.20;58.30
7666;DHT22;3875;46.562;4.898;2022-07-04T11:57:40;28.80;57.40
7666;DHT22;3875;46.562;4.898;2022-07-04T12:00:08;28.60;59.40
7666;DHT22;3875;46.562;4.898;2022-07-04T12:02:34;28.70;59.10
7666;DHT22;3875;46.562;4.898;2022-07-04T12:05:03;28.90;59.60
7666;DHT22;3875;46.562;4.898;2022-07-04T12:07:30;29.00;59.10
7666;DHT22;3875;46.562;4.898;2022-07-04T12:12:34;28.20;59.40
7666;DHT22;3875;46.562;4.898;2022-07-04T12:15:07;27.80;59.40
7666;DHT22;3875;46.562;4.898;2022-07-04T12:17:37;27.80;59.70
7666;DHT22;3875;46.562;4.898;2022-07-04T12:20:12;27.70;59.10
7666;DHT22;3875;46.562;4.898;2022-07-04T12:22:50;27.70;59.30
7666;DHT22;3875;46.562;4.898;2022-07-04T12:27:58;27.20;61.60
7666;DHT22;3875;46.562;4.898;2022-07-04T12:30:26;27.30;61.60
7666;DHT22;3875;46.562;4.898;2022-07-04T12:32:57;27.30;62.10
7666;DHT22;3875;46.562;4.898;2022-07-04T12:35:46;27.70;61.60
7666;DHT22;3875;46.562;4.898;2022-07-04T12:38:20;27.80;59.00
7666;DHT22;3875;46.562;4.898;2022-07-04T12:41:13;27.70;59.30
7666;DHT22;3875;46.562;4.898;2022-07-04T12:48:34;27.80;60.20
7666;DHT22;3875;46.562;4.898;2022-07-04T12:53:42;28.50;60.30
7666;DHT22;3875;46.562;4.898;2022-07-04T12:56:09;28.70;59.80
7666;DHT22;3875;46.562;4.898;2022-07-04T12:58:35;29.00;58.80
7666;DHT22;3875;46.562;4.898;2022-07-04T13:01:02;29.30;58.70
7666;DHT22;3875;46.562;4.898;2022-07-04T13:03:28;29.00;56.90
7666;DHT22;3875;46.562;4.898;2022-07-04T13:05:54;28.90;56.80
7666;DHT22;3875;46.562;4.898;2022-07-04T13:08:22;28.80;57.30
7666;DHT22;3875;46.562;4.898;2022-07-04T13:10:48;28.90;58.00
7666;DHT22;3875;46.562;4.898;2022-07-04T13:13:34;29.00;57.50
7666;DHT22;3875;46.562;4.898;2022-07-04T13:16:00;29.00;56.50
7666;DHT22;3875;46.562;4.898;2022-07-04T13:18:26;28.80;55.40
7666;DHT22;3875;46.562;4.898;2022-07-04T13:20:52;28.50;56.20
7666;DHT22;3875;46.562;4.898;2022-07-04T13:23:17;28.20;57.20
7666;DHT22;3875;46.562;4.898;2022-07-04T13:25:43;28.00;56.90
7666;DHT22;3875;46.562;4.898;2022-07-04T13:28:08;28.20;57.20
7666;DHT22;3875;46.562;4.898;2022-07-04T13:30:34;28.50;56.80
7666;DHT22;3875;46.562;4.898;2022-07-04T13:33:00;28.70;57.20
7666;DHT22;3875;46.562;4.898;2022-07-04T13:35:25;28.90;55.90
7666;DHT22;3875;46.562;4.898;2022-07-04T13:37:51;28.90;55.40
7666;DHT22;3875;46.562;4.898;2022-07-04T13:40:17;29.00;55.50
7666;DHT22;3875;46.562;4.898;2022-07-04T13:42:42;28.90;55.20
7666;DHT22;3875;46.562;4.898;2022-07-04T13:45:24;29.00;56.40
7666;DHT22;3875;46.562;4.898;2022-07-04T13:47:51;29.30;55.90
7666;DHT22;3875;46.562;4.898;2022-07-04T13:50:17;29.30;56.60
7666;DHT22;3875;46.562;4.898;2022-07-04T13:52:43;29.40;56.70
7666;DHT22;3875;46.562;4.898;2022-07-04T13:55:09;29.20;55.60
7666;DHT22;3875;46.562;4.898;2022-07-04T13:57:35;29.00;56.50
7666;DHT22;3875;46.562;4.898;2022-07-04T14:00:03;29.10;56.10
7666;DHT22;3875;46.562;4.898;2022-07-04T14:02:29;29.20;54.90
7666;DHT22;3875;46.562;4.898;2022-07-04T14:04:55;29.30;55.60
7666;DHT22;3875;46.562;4.898;2022-07-04T14:07:21;29.00;51.70
7666;DHT22;3875;46.562;4.898;2022-07-04T14:09:47;28.90;53.00
7666;DHT22;3875;46.562;4.898;2022-07-04T14:12:14;28.80;53.90
7666;DHT22;3875;46.562;4.898;2022-07-04T14:14:40;28.70;55.50
7666;DHT22;3875;46.562;4.898;2022-07-04T14:17:06;28.80;55.50
7666;DHT22;3875;46.562;4.898;2022-07-04T14:19:31;28.80;56.00
7666;DHT22;3875;46.562;4.898;2022-07-04T14:21:57;28.90;54.70
7666;DHT22;3875;46.562;4.898;2022-07-04T14:24:23;29.00;54.60
7666;DHT22;3875;46.562;4.898;2022-07-04T14:26:54;28.90;54.70
7666;DHT22;3875;46.562;4.898;2022-07-04T14:29:20;29.00;56.30
7666;DHT22;3875;46.562;4.898;2022-07-04T14:31:46;29.20;55.70
7666;DHT22;3875;46.562;4.898;2022-07-04T14:34:13;29.00;55.10
7666;DHT22;3875;46.562;4.898;2022-07-04T14:36:39;29.00;56.00
7666;DHT22;3875;46.562;4.898;2022-07-04T14:39:06;29.30;55.60
7666;DHT22;3875;46.562;4.898;2022-07-04T14:41:31;29.40;54.80
7666;DHT22;3875;46.562;4.898;2022-07-04T14:43:57;29.40;55.50
7666;DHT22;3875;46.562;4.898;2022-07-04T14:46:23;29.50;54.60
7666;DHT22;3875;46.562;4.898;2022-07-04T14:48:49;29.40;54.40
7666;DHT22;3875;46.562;4.898;2022-07-04T14:51:15;29.20;54.60
7666;DHT22;3875;46.562;4.898;2022-07-04T14:53:40;29.20;55.10
7666;DHT22;3875;46.562;4.898;2022-07-04T14:56:06;29.10;54.50
7666;DHT22;3875;46.562;4.898;2022-07-04T14:58:32;29.10;55.30
7666;DHT22;3875;46.562;4.898;2022-07-04T15:00:57;29.30;56.10
7666;DHT22;3875;46.562;4.898;2022-07-04T15:03:23;29.50;56.00
7666;DHT22;3875;46.562;4.898;2022-07-04T15:05:49;29.60;55.50
7666;DHT22;3875;46.562;4.898;2022-07-04T15:08:15;29.70;55.20
7666;DHT22;3875;46.562;4.898;2022-07-04T15:10:41;29.60;54.40
7666;DHT22;3875;46.562;4.898;2022-07-04T15:13:07;29.40;55.20
7666;DHT22;3875;46.562;4.898;2022-07-04T15:15:33;29.40;54.40
7666;DHT22;3875;46.562;4.898;2022-07-04T15:17:59;29.20;55.20
7666;DHT22;3875;46.562;4.898;2022-07-04T15:20:25;29.00;56.00
7666;DHT22;3875;46.562;4.898;2022-07-04T15:23:10;28.90;56.70
7666;DHT22;3875;46.562;4.898;2022-07-04T15:25:54;28.80;55.30
7666;DHT22;3875;46.562;4.898;2022-07-04T15:28:20;28.60;56.40
7666;DHT22;3875;46.562;4.898;2022-07-04T15:30:46;28.70;56.90
7666;DHT22;3875;46.562;4.898;2022-07-04T15:33:11;29.10;55.70
7666;DHT22;3875;46.562;4.898;2022-07-04T15:35:44;29.40;56.20
7666;DHT22;3875;46.562;4.898;2022-07-04T15:38:10;29.60;55.70
7666;DHT22;3875;46.562;4.898;2022-07-04T15:40:37;29.40;55.50
7666;DHT22;3875;46.562;4.898;2022-07-04T15:43:03;29.20;56.00
7666;DHT22;3875;46.562;4.898;2022-07-04T15:45:29;29.30;55.80
7666;DHT22;3875;46.562;4.898;2022-07-04T15:47:55;29.20;55.60
7666;DHT22;3875;46.562;4.898;2022-07-04T15:50:21;29.00;56.30
7666;DHT22;3875;46.562;4.898;2022-07-04T15:52:47;28.90;56.80
7666;DHT22;3875;46.562;4.898;2022-07-04T15:55:13;29.00;56.50
7666;DHT22;3875;46.562;4.898;2022-07-04T15:57:39;29.00;57.50
7666;DHT22;3875;46.562;4.898;2022-07-04T16:00:05;29.30;56.70
7666;DHT22;3875;46.562;4.898;2022-07-04T16:02:31;29.60;56.50
7666;DHT22;3875;46.562;4.898;2022-07-04T16:04:57;29.70;55.40
7666;DHT22;3875;46.562;4.898;2022-07-04T16:07:22;29.70;56.00
7666;DHT22;3875;46.562;4.898;2022-07-04T16:09:48;29.80;56.60
7666;DHT22;3875;46.562;4.898;2022-07-04T16:12:14;29.50;55.90
7666;DHT22;3875;46.562;4.898;2022-07-04T16:14:39;29.10;56.50
7666;DHT22;3875;46.562;4.898;2022-07-04T16:17:05;29.00;57.10
7666;DHT22;3875;46.562;4.898;2022-07-04T16:19:31;28.90;58.00
7666;DHT22;3875;46.562;4.898;2022-07-04T16:21:57;28.90;57.10
7666;DHT22;3875;46.562;4.898;2022-07-04T16:24:23;28.70;58.50
7666;DHT22;3875;46.562;4.898;2022-07-04T16:26:49;28.70;58.30
7666;DHT22;3875;46.562;4.898;2022-07-04T16:29:14;28.70;58.20
7666;DHT22;3875;46.562;4.898;2022-07-04T16:31:40;28.70;58.20
7666;DHT22;3875;46.562;4.898;2022-07-04T16:34:06;28.50;58.30
7666;DHT22;3875;46.562;4.898;2022-07-04T16:36:32;28.80;58.80
7666;DHT22;3875;46.562;4.898;2022-07-04T16:38:58;29.20;58.00
7666;DHT22;3875;46.562;4.898;2022-07-04T16:41:24;29.30;57.70
7666;DHT22;3875;46.562;4.898;2022-07-04T16:43:51;29.50;57.90
7666;DHT22;3875;46.562;4.898;2022-07-04T16:46:17;29.40;58.00
7666;DHT22;3875;46.562;4.898;2022-07-04T16:48:42;29.30;58.20